Time;durP1;ratioP1;P1;durP2;ratioP2;P2;SDS_P1;SDS_P2;PMS_P1;PMS_P2;Temp;Humidity;BMP_temperature;BMP_pressure;BME280_temperature;BME280_humidity;BME280_pressure;Samples;Min_cycle;Max_cycle;Signal;HPM_P1;HPM_P2
2022/10/28 00:00:46;;;;;;;9.50;7.75;;;11.60;99.90;;;;;;5063242;28;20607;-74
2022/10/28 00:03:11;;;;;;;9.45;8.50;;;11.60;99.90;;;;;;5072830;28;20180;-74
2022/10/28 00:05:37;;;;;;;11.50;9.57;;;11.50;99.90;;;;;;5061786;28;20285;-73
2022/10/28 00:08:03;;;;;;;10.15;8.50;;;11.40;99.90;;;;;;5069494;28;20182;-74
2022/10/28 00:10:29;;;;;;;15.82;10.23;;;11.40;99.90;;;;;;5061203;28;20208;-75
2022/10/28 00:12:54;;;;;;;10.50;8.18;;;11.30;99.90;;;;;;5063697;28;20228;-75
2022/10/28 00:15:20;;;;;;;10.48;9.38;;;11.30;99.90;;;;;;5073604;28;20715;-75
2022/10/28 00:17:45;;;;;;;10.98;8.90;;;11.30;99.90;;;;;;5072835;28;20183;-80
2022/10/28 00:20:11;;;;;;;9.80;8.80;;;11.30;99.90;;;;;;5067955;28;20180;-75
2022/10/28 00:22:37;;;;;;;12.00;9.45;;;11.30;99.90;;;;;;5063044;28;20176;-75
2022/10/28 00:25:03;;;;;;;9.40;8.50;;;11.20;99.90;;;;;;5068238;28;22043;-75
2022/10/28 00:27:29;;;;;;;12.60;9.43;;;11.20;99.90;;;;;;5072267;28;20257;-75
2022/10/28 00:29:55;;;;;;;11.43;9.13;;;11.20;99.90;;;;;;5068526;28;20715;-75
2022/10/28 00:32:21;;;;;;;10.38;9.15;;;11.20;99.90;;;;;;5070374;28;20601;-75
2022/10/28 00:34:47;;;;;;;12.82;9.95;;;11.20;99.90;;;;;;5071057;28;20179;-75
2022/10/28 00:37:12;;;;;;;10.77;9.13;;;11.20;99.90;;;;;;5067227;28;20238;-79
2022/10/28 00:39:38;;;;;;;9.88;8.98;;;11.20;99.90;;;;;;5067252;28;20176;-75
2022/10/28 00:42:05;;;;;;;10.40;9.40;;;11.20;99.90;;;;;;5074014;28;20167;-75
2022/10/28 00:45:00;;;;;;;10.18;8.40;;;11.20;99.90;;;;;;5068630;28;20194;-75
2022/10/28 00:47:54;;;;;;;11.88;9.90;;;11.20;99.90;;;;;;5065114;28;20238;-75
2022/10/28 00:50:40;;;;;;;10.35;9.30;;;11.20;99.90;;;;;;5059588;28;20206;-75
2022/10/28 00:53:21;;;;;;;11.13;9.38;;;11.20;99.90;;;;;;5069147;28;20172;-75
2022/10/28 00:55:48;;;;;;;13.32;10.10;;;11.20;99.90;;;;;;5059888;28;20325;-74
2022/10/28 00:58:15;;;;;;;11.93;9.90;;;11.20;99.90;;;;;;5074606;28;20178;-73
2022/10/28 01:00:40;;;;;;;11.10;9.50;;;11.20;99.90;;;;;;5066806;28;20219;-73
2022/10/28 01:03:07;;;;;;;14.23;9.43;;;11.20;99.90;;;;;;5065615;28;20217;-73
2022/10/28 01:05:35;;;;;;;11.43;8.93;;;11.20;99.90;;;;;;5060887;28;20690;-73
2022/10/28 01:08:03;;;;;;;10.95;8.35;;;11.30;99.90;;;;;;5068242;28;20554;-73
2022/10/28 01:10:41;;;;;;;11.07;8.98;;;11.40;99.90;;;;;;5064729;28;20752;-73
2022/10/28 01:13:28;;;;;;;9.95;9.05;;;11.40;99.90;;;;;;5064569;28;20187;-74
2022/10/28 01:16:01;;;;;;;11.43;8.90;;;11.40;99.90;;;;;;5068940;28;20277;-74
2022/10/28 01:18:57;;;;;;;13.73;9.65;;;11.30;99.90;;;;;;5068600;28;20175;-74
2022/10/28 01:21:40;;;;;;;12.45;9.18;;;11.30;99.90;;;;;;5064567;28;20260;-74
2022/10/28 01:24:37;;;;;;;10.80;8.98;;;11.20;99.90;;;;;;5061325;28;20183;-74
2022/10/28 01:27:08;;;;;;;11.95;9.60;;;11.20;99.90;;;;;;5064948;28;20212;-74
2022/10/28 01:29:40;;;;;;;12.13;9.68;;;11.10;99.90;;;;;;5069593;28;20564;-74
2022/10/28 01:32:24;;;;;;;9.63;8.73;;;11.20;99.90;;;;;;5061532;28;20610;-74
2022/10/28 01:34:57;;;;;;;10.15;8.75;;;11.10;99.90;;;;;;5069491;28;20198;-74
2022/10/28 01:37:34;;;;;;;9.75;8.77;;;11.10;99.90;;;;;;5064401;28;20242;-73
2022/10/28 01:40:28;;;;;;;10.52;8.68;;;11.00;99.90;;;;;;5072499;28;20598;-74
2022/10/28 01:43:04;;;;;;;11.13;9.27;;;11.00;99.90;;;;;;5066574;28;20184;-74
2022/10/28 01:45:48;;;;;;;11.02;9.20;;;11.00;99.90;;;;;;5059615;28;20309;-74
2022/10/28 01:48:29;;;;;;;9.80;8.80;;;11.00;99.90;;;;;;5077323;28;20182;-74
2022/10/28 01:51:02;;;;;;;10.70;9.65;;;11.10;99.90;;;;;;5059936;28;20594;-74
2022/10/28 01:53:34;;;;;;;10.10;9.13;;;11.00;99.90;;;;;;5070254;28;20211;-73
2022/10/28 01:56:06;;;;;;;10.65;9.02;;;10.90;99.90;;;;;;5064340;28;20455;-73
2022/10/28 01:58:35;;;;;;;10.32;8.93;;;10.90;99.90;;;;;;5066555;28;20211;-74
2022/10/28 02:01:05;;;;;;;10.88;9.23;;;10.90;99.90;;;;;;5063516;28;20518;-73
2022/10/28 02:03:31;;;;;;;13.35;9.95;;;10.90;99.90;;;;;;5067220;28;20179;-74
2022/10/28 02:05:59;;;;;;;11.43;10.05;;;11.00;99.90;;;;;;5066294;28;20681;-73
2022/10/28 02:08:36;;;;;;;11.65;10.45;;;11.00;99.90;;;;;;5062685;28;20249;-73
2022/10/28 02:11:07;;;;;;;12.77;10.50;;;10.90;99.90;;;;;;5064895;28;20232;-74
2022/10/28 02:14:10;;;;;;;13.35;10.15;;;10.90;99.90;;;;;;5060464;28;20522;-74
2022/10/28 02:17:06;;;;;;;15.93;10.25;;;10.80;99.90;;;;;;5066955;28;20206;-74
2022/10/28 02:19:43;;;;;;;11.77;10.63;;;10.70;99.90;;;;;;5066346;28;20593;-74
2022/10/28 02:22:44;;;;;;;11.05;9.88;;;10.70;99.90;;;;;;5067780;28;20175;-74
2022/10/28 02:25:19;;;;;;;21.40;11.23;;;10.60;99.90;;;;;;5054191;28;20215;-74
2022/10/28 02:28:02;;;;;;;13.38;11.00;;;10.60;99.90;;;;;;5059992;28;20175;-74
2022/10/28 02:30:43;;;;;;;13.27;11.43;;;10.70;99.90;;;;;;5065376;28;20175;-74
2022/10/28 02:33:13;;;;;;;16.88;12.52;;;10.70;99.90;;;;;;5073887;28;20225;-74
2022/10/28 02:36:02;;;;;;;15.40;13.25;;;10.70;99.90;;;;;;5069919;28;20203;-74
2022/10/28 02:38:41;;;;;;;17.67;13.48;;;10.70;99.90;;;;;;5067599;28;20271;-74
2022/10/28 02:41:20;;;;;;;17.67;13.68;;;10.70;99.90;;;;;;5068771;28;20172;-74
2022/10/28 02:43:51;;;;;;;19.33;13.07;;;10.60;99.90;;;;;;5070199;28;20722;-73
2022/10/28 02:46:18;;;;;;;16.02;12.90;;;10.70;99.90;;;;;;5068526;28;20219;-74
2022/10/28 02:48:52;;;;;;;18.20;14.02;;;10.70;99.90;;;;;;5066624;28;20247;-74
2022/10/28 02:51:23;;;;;;;14.50;12.88;;;10.70;99.90;;;;;;5069137;28;20175;-74
2022/10/28 02:54:02;;;;;;;16.60;12.75;;;10.60;99.90;;;;;;5069255;28;20204;-74
2022/10/28 02:56:31;;;;;;;15.07;12.18;;;10.70;99.90;;;;;;5066402;28;20198;-74
2022/10/28 02:58:57;;;;;;;15.35;13.43;;;10.60;99.90;;;;;;5066772;28;20232;-74
2022/10/28 03:01:22;;;;;;;15.05;13.48;;;10.60;99.90;;;;;;5069087;28;20183;-75
2022/10/28 03:03:48;;;;;;;16.25;13.13;;;10.70;99.90;;;;;;5067711;28;20182;-74
2022/10/28 03:06:14;;;;;;;20.67;13.23;;;10.70;99.90;;;;;;5068921;28;20264;-74
2022/10/28 03:08:39;;;;;;;18.30;13.32;;;10.70;99.90;;;;;;5060273;28;20180;-75
2022/10/28 03:11:05;;;;;;;15.88;12.43;;;10.70;99.90;;;;;;5061824;28;20196;-75
2022/10/28 03:13:31;;;;;;;14.45;13.05;;;10.60;99.90;;;;;;5067866;28;20693;-74
2022/10/28 03:15:56;;;;;;;13.93;11.70;;;10.60;99.90;;;;;;5072462;28;20211;-75
2022/10/28 03:18:22;;;;;;;12.68;11.38;;;10.70;99.90;;;;;;5065959;28;20183;-74
2022/10/28 03:20:48;;;;;;;12.18;11.00;;;10.80;99.90;;;;;;5065344;28;20172;-74
2022/10/28 03:23:13;;;;;;;15.77;11.07;;;10.80;99.90;;;;;;5071974;28;20182;-74
2022/10/28 03:25:39;;;;;;;13.10;11.35;;;10.80;99.90;;;;;;5063959;28;20207;-75
2022/10/28 03:28:04;;;;;;;13.35;11.57;;;10.80;99.90;;;;;;5058139;28;20642;-76
2022/10/28 03:30:30;;;;;;;12.35;11.00;;;10.80;99.90;;;;;;5066801;28;20313;-75
2022/10/28 03:32:56;;;;;;;15.82;12.00;;;10.70;99.90;;;;;;5062535;28;20186;-75
2022/10/28 03:35:21;;;;;;;11.25;10.13;;;10.70;99.90;;;;;;5062428;28;20207;-75
2022/10/28 03:37:47;;;;;;;11.98;10.77;;;10.80;99.90;;;;;;5058805;28;20603;-75
2022/10/28 03:40:13;;;;;;;13.05;11.68;;;10.80;99.90;;;;;;5062254;28;20179;-75
2022/10/28 03:42:42;;;;;;;12.70;11.15;;;10.80;99.90;;;;;;5067579;28;20262;-75
2022/10/28 03:45:08;;;;;;;13.57;11.68;;;10.80;99.90;;;;;;5069198;28;20211;-75
2022/10/28 03:47:35;;;;;;;15.15;12.07;;;10.90;99.90;;;;;;5070668;28;20178;-74
2022/10/28 03:50:01;;;;;;;13.35;11.82;;;10.90;99.90;;;;;;5066734;28;20179;-75
2022/10/28 03:52:26;;;;;;;14.18;11.43;;;10.90;99.90;;;;;;5070305;28;20225;-75
2022/10/28 03:54:52;;;;;;;15.68;12.45;;;10.90;99.90;;;;;;5069720;28;20642;-75
2022/10/28 03:57:17;;;;;;;14.13;11.93;;;11.00;99.90;;;;;;5070224;28;20745;-75
2022/10/28 03:59:43;;;;;;;15.43;12.05;;;11.00;99.90;;;;;;5073075;28;20172;-76
2022/10/28 04:02:09;;;;;;;13.82;11.52;;;11.10;99.90;;;;;;5072544;28;20225;-76
2022/10/28 04:04:35;;;;;;;14.38;12.07;;;11.10;99.90;;;;;;5067579;28;20167;-76
2022/10/28 04:07:01;;;;;;;21.75;12.93;;;11.10;99.90;;;;;;5065683;28;20698;-74
2022/10/28 04:09:27;;;;;;;13.45;12.05;;;11.20;99.90;;;;;;5068297;28;20279;-74
2022/10/28 04:11:53;;;;;;;14.93;12.80;;;11.20;99.90;;;;;;5067052;28;20183;-74
2022/10/28 04:14:18;;;;;;;16.23;13.05;;;11.10;99.90;;;;;;5072736;28;20189;-74
2022/10/28 04:16:44;;;;;;;14.13;10.93;;;11.10;99.90;;;;;;5071259;28;20207;-73
2022/10/28 04:19:09;;;;;;;14.18;12.68;;;11.10;99.90;;;;;;5072066;28;20179;-74
2022/10/28 04:21:35;;;;;;;17.27;12.77;;;11.10;99.90;;;;;;5074210;28;20188;-74
2022/10/28 04:24:01;;;;;;;17.58;12.82;;;11.10;99.90;;;;;;5069600;28;20188;-74
2022/10/28 04:26:27;;;;;;;19.25;13.90;;;11.10;99.90;;;;;;5068620;28;20797;-74
2022/10/28 04:28:52;;;;;;;14.75;12.77;;;11.10;99.90;;;;;;5068732;28;20190;-74
2022/10/28 04:31:18;;;;;;;14.23;12.65;;;11.10;99.90;;;;;;5069209;28;20190;-74
2022/10/28 04:33:43;;;;;;;16.75;12.98;;;11.10;99.90;;;;;;5066143;28;20187;-74
2022/10/28 04:36:09;;;;;;;14.27;12.63;;;11.20;99.90;;;;;;5068071;28;20271;-74
2022/10/28 04:38:35;;;;;;;16.65;12.88;;;11.20;99.90;;;;;;5065562;28;20179;-73
2022/10/28 04:41:00;;;;;;;15.63;13.07;;;11.20;99.90;;;;;;5069447;28;20598;-73
2022/10/28 04:43:26;;;;;;;15.75;13.20;;;11.30;99.90;;;;;;5064645;28;20277;-73
2022/10/28 04:45:51;;;;;;;18.15;13.60;;;11.40;99.90;;;;;;5063986;28;20222;-74
2022/10/28 04:48:17;;;;;;;18.05;13.35;;;11.40;99.90;;;;;;5068316;28;20669;-74
2022/10/28 04:50:43;;;;;;;15.05;12.88;;;11.40;99.90;;;;;;5062018;28;20195;-74
2022/10/28 04:53:09;;;;;;;16.73;12.35;;;11.40;99.90;;;;;;5057199;28;20433;-73
2022/10/28 04:55:34;;;;;;;20.98;13.73;;;11.40;99.90;;;;;;5061949;28;20674;-74
2022/10/28 04:58:00;;;;;;;18.67;13.27;;;11.40;99.90;;;;;;5063366;28;20183;-73
2022/10/28 05:00:28;;;;;;;16.33;13.68;;;11.40;99.90;;;;;;5061007;28;20195;-73
2022/10/28 05:02:54;;;;;;;19.17;13.82;;;11.40;99.90;;;;;;5069850;28;20176;-74
2022/10/28 05:05:20;;;;;;;17.83;13.52;;;11.30;99.90;;;;;;5062658;28;20209;-75
2022/10/28 05:07:45;;;;;;;17.15;13.50;;;11.40;99.90;;;;;;5073071;28;20187;-75
2022/10/28 05:10:14;;;;;;;17.75;14.35;;;11.40;99.90;;;;;;5071848;28;20198;-74
2022/10/28 05:12:44;;;;;;;20.20;14.95;;;11.30;99.90;;;;;;5072108;28;20179;-74
2022/10/28 05:15:11;;;;;;;20.73;14.82;;;11.30;99.90;;;;;;5076032;28;20223;-74
2022/10/28 05:17:44;;;;;;;19.52;14.88;;;11.30;99.90;;;;;;5069796;28;20250;-74
2022/10/28 05:20:11;;;;;;;18.42;13.60;;;11.40;99.90;;;;;;5061757;28;20623;-74
2022/10/28 05:22:37;;;;;;;16.92;13.35;;;11.40;99.90;;;;;;5066205;28;20211;-74
2022/10/28 05:25:04;;;;;;;26.77;14.48;;;11.40;99.90;;;;;;5060876;28;20219;-73
2022/10/28 05:27:29;;;;;;;20.00;14.30;;;11.50;99.90;;;;;;5059465;28;20229;-74
2022/10/28 05:29:55;;;;;;;30.80;14.05;;;11.50;99.90;;;;;;5053647;28;20430;-74
2022/10/28 05:32:20;;;;;;;21.92;14.63;;;11.50;99.90;;;;;;5057334;28;20180;-74
2022/10/28 05:34:46;;;;;;;23.52;14.25;;;11.40;99.90;;;;;;5053001;28;20186;-73
2022/10/28 05:37:12;;;;;;;18.13;14.30;;;11.30;99.90;;;;;;5054574;28;20208;-74
2022/10/28 05:39:37;;;;;;;35.17;14.55;;;11.30;99.90;;;;;;5052774;28;20179;-74
2022/10/28 05:42:03;;;;;;;28.33;15.40;;;11.30;99.90;;;;;;5054193;28;20263;-74
2022/10/28 05:44:29;;;;;;;23.27;14.63;;;11.30;99.90;;;;;;5054467;28;20183;-74
2022/10/28 05:46:55;;;;;;;22.80;14.63;;;11.20;99.90;;;;;;5059100;28;20206;-74
2022/10/28 05:49:21;;;;;;;27.30;13.88;;;11.20;99.90;;;;;;5054458;28;20180;-74
2022/10/28 05:51:47;;;;;;;31.00;14.50;;;11.30;99.90;;;;;;5057881;28;20255;-77
2022/10/28 05:54:12;;;;;;;21.27;14.48;;;11.30;99.90;;;;;;5061379;28;20253;-77
2022/10/28 05:56:38;;;;;;;26.33;14.73;;;11.30;99.90;;;;;;5060447;28;20198;-74
2022/10/28 05:59:04;;;;;;;22.15;15.00;;;11.30;99.90;;;;;;5055790;28;20361;-76
2022/10/28 06:01:29;;;;;;;20.23;14.05;;;11.40;99.90;;;;;;5056180;28;20186;-75
2022/10/28 06:03:55;;;;;;;26.38;14.52;;;11.40;99.90;;;;;;5059621;28;20171;-77
2022/10/28 06:06:20;;;;;;;27.88;14.60;;;11.40;99.90;;;;;;5068591;28;20286;-74
2022/10/28 06:08:46;;;;;;;40.30;14.65;;;11.40;99.90;;;;;;5070183;28;20199;-78
2022/10/28 06:11:12;;;;;;;23.77;13.90;;;11.40;99.90;;;;;;5072518;28;20262;-74
2022/10/28 06:13:37;;;;;;;21.75;11.75;;;11.40;99.90;;;;;;5071502;28;20175;-75
2022/10/28 06:16:03;;;;;;;23.02;13.43;;;11.50;99.90;;;;;;5077971;28;20234;-72
2022/10/28 06:18:29;;;;;;;26.88;14.05;;;11.60;99.90;;;;;;5069992;28;20214;-74
2022/10/28 06:20:58;;;;;;;15.73;12.13;;;11.70;99.90;;;;;;5065354;28;20183;-73
2022/10/28 06:23:25;;;;;;;32.58;14.35;;;11.70;99.90;;;;;;5065247;28;20189;-73
2022/10/28 06:26:02;;;;;;;18.38;13.05;;;11.70;99.90;;;;;;5066149;28;20207;-76
2022/10/28 06:28:31;;;;;;;33.85;14.40;;;11.60;99.90;;;;;;5067029;28;20189;-77
2022/10/28 06:31:15;;;;;;;29.15;13.88;;;11.70;99.90;;;;;;5073589;28;20183;-78
2022/10/28 06:33:41;;;;;;;21.40;13.23;;;11.70;99.90;;;;;;5070700;28;20183;-78
2022/10/28 06:36:07;;;;;;;19.25;13.32;;;11.60;99.90;;;;;;5060217;28;20235;-77
2022/10/28 06:38:33;;;;;;;20.27;13.82;;;11.60;99.90;;;;;;5059087;28;20689;-77
2022/10/28 06:40:59;;;;;;;26.83;12.85;;;11.70;99.90;;;;;;5061723;28;20222;-77
2022/10/28 06:43:25;;;;;;;16.58;12.27;;;11.80;99.90;;;;;;5061831;28;20187;-77
2022/10/28 06:45:55;;;;;;;15.48;12.98;;;11.80;99.90;;;;;;5059787;28;20288;-77
2022/10/28 06:48:21;;;;;;;19.00;12.32;;;11.90;99.90;;;;;;5062348;28;20250;-77
2022/10/28 06:50:46;;;;;;;16.90;12.93;;;11.90;99.90;;;;;;5056847;28;20613;-77
2022/10/28 06:53:12;;;;;;;25.27;13.88;;;11.90;99.90;;;;;;5056556;28;20574;-77
2022/10/28 06:55:37;;;;;;;13.57;11.93;;;11.90;99.90;;;;;;5056014;28;20215;-77
2022/10/28 06:58:03;;;;;;;15.15;11.85;;;12.00;99.90;;;;;;5053432;28;20192;-77
2022/10/28 07:00:30;;;;;;;27.08;12.90;;;12.10;99.90;;;;;;5056342;28;20188;-78
2022/10/28 07:02:56;;;;;;;22.45;13.38;;;12.30;99.90;;;;;;5063620;28;20651;-77
2022/10/28 07:05:24;;;;;;;24.70;11.82;;;12.20;99.90;;;;;;5075633;28;20213;-77
2022/10/28 07:07:49;;;;;;;18.55;12.45;;;12.30;99.90;;;;;;5063319;28;20168;-77
2022/10/28 07:10:20;;;;;;;26.10;12.50;;;12.30;99.90;;;;;;5071136;28;20175;-75
2022/10/28 07:12:46;;;;;;;12.98;11.63;;;12.40;99.90;;;;;;5070798;28;20179;-77
2022/10/28 07:15:12;;;;;;;17.02;11.98;;;12.60;99.90;;;;;;5078206;28;20203;-79
2022/10/28 07:17:37;;;;;;;13.38;11.60;;;12.70;99.90;;;;;;5075189;28;20183;-75
2022/10/28 07:20:03;;;;;;;20.45;12.48;;;12.80;99.90;;;;;;5065402;28;20172;-76
2022/10/28 07:22:29;;;;;;;12.60;11.30;;;12.90;99.90;;;;;;5064638;28;20643;-75
2022/10/28 07:24:55;;;;;;;13.10;11.82;;;13.00;99.90;;;;;;5065810;28;20206;-74
2022/10/28 07:27:20;;;;;;;14.38;12.27;;;13.20;99.90;;;;;;5074976;28;20269;-75
2022/10/28 07:29:46;;;;;;;14.15;12.65;;;13.30;99.90;;;;;;5071124;28;20190;-73
2022/10/28 07:32:11;;;;;;;13.05;11.60;;;13.30;99.90;;;;;;5059877;28;20186;-74
2022/10/28 07:34:37;;;;;;;17.73;11.13;;;13.50;99.90;;;;;;5062263;28;20717;-73
2022/10/28 07:37:04;;;;;;;13.77;11.45;;;13.60;99.90;;;;;;5059354;28;20196;-74
2022/10/28 07:39:30;;;;;;;14.13;12.07;;;13.70;99.90;;;;;;5062947;28;20551;-74
2022/10/28 07:41:56;;;;;;;13.43;11.68;;;13.80;99.90;;;;;;5058796;28;20179;-73
2022/10/28 07:44:21;;;;;;;13.10;11.80;;;13.80;99.90;;;;;;5061058;28;20188;-73
2022/10/28 07:46:48;;;;;;;15.00;13.40;;;13.70;99.90;;;;;;5061785;28;20595;-73
2022/10/28 07:49:16;;;;;;;13.45;12.10;;;13.80;99.90;;;;;;5062718;28;20187;-75
2022/10/28 07:51:42;;;;;;;13.98;12.48;;;13.90;99.90;;;;;;5053649;28;20191;-75
2022/10/28 07:54:07;;;;;;;14.32;12.98;;;14.00;99.90;;;;;;5058314;28;20191;-74
2022/10/28 07:56:44;;;;;;;17.88;12.27;;;14.10;99.90;;;;;;5061375;28;20212;-76
2022/10/28 07:59:10;;;;;;;15.07;13.57;;;14.10;99.90;;;;;;5061159;28;20190;-74
2022/10/28 08:01:36;;;;;;;14.68;13.18;;;14.10;99.90;;;;;;5056991;28;20322;-76
2022/10/28 08:04:02;;;;;;;14.88;12.95;;;14.20;99.90;;;;;;5061470;28;20183;-77
2022/10/28 08:06:27;;;;;;;15.38;13.75;;;14.30;99.90;;;;;;5062799;28;20739;-77
2022/10/28 08:08:55;;;;;;;14.82;13.32;;;14.40;99.90;;;;;;5061019;28;20191;-78
2022/10/28 08:11:22;;;;;;;15.52;13.80;;;14.60;99.90;;;;;;5060818;28;20234;-77
2022/10/28 08:13:49;;;;;;;15.35;13.15;;;14.90;99.90;;;;;;5054788;28;20175;-77
2022/10/28 08:16:15;;;;;;;14.73;13.23;;;15.10;99.90;;;;;;5066173;28;20335;-78
2022/10/28 08:18:41;;;;;;;15.57;14.07;;;15.00;99.90;;;;;;5074791;28;20241;-78
2022/10/28 08:21:08;;;;;;;15.00;13.48;;;15.00;99.90;;;;;;5076501;28;20183;-78
2022/10/28 08:23:37;;;;;;;15.15;13.55;;;14.90;99.90;;;;;;5074135;28;20991;-78
2022/10/28 08:26:04;;;;;;;16.95;15.20;;;14.70;99.90;;;;;;5075476;28;20198;-79
2022/10/28 08:28:30;;;;;;;16.45;14.80;;;14.70;99.90;;;;;;5065563;28;20179;-80
2022/10/28 08:31:00;;;;;;;16.20;14.70;;;14.60;99.90;;;;;;5071075;28;20210;-79
2022/10/28 08:33:25;;;;;;;17.67;15.38;;;14.70;99.90;;;;;;5072159;28;20676;-78
2022/10/28 08:35:51;;;;;;;18.00;15.27;;;14.90;99.90;;;;;;5063030;28;20211;-78
2022/10/28 08:38:17;;;;;;;16.33;14.63;;;15.00;99.90;;;;;;5066388;28;20167;-78
2022/10/28 08:41:03;;;;;;;16.02;14.32;;;15.00;99.90;;;;;;5061170;28;20179;-74
2022/10/28 08:43:41;;;;;;;18.35;14.98;;;15.10;99.90;;;;;;5059439;28;20191;-75
2022/10/28 08:46:36;;;;;;;15.85;14.18;;;15.30;99.90;;;;;;5059847;28;20632;-77
2022/10/28 08:49:08;;;;;;;16.05;14.38;;;15.70;99.90;;;;;;5036512;28;20229;-75
2022/10/28 08:51:57;;;;;;;15.90;12.98;;;16.10;99.90;;;;;;5053282;28;20187;-74
2022/10/28 08:54:31;;;;;;;16.75;14.48;;;16.30;99.90;;;;;;5059861;28;20270;-74
2022/10/28 08:57:00;;;;;;;15.13;13.70;;;16.60;99.90;;;;;;5056693;28;20218;-74
2022/10/28 08:59:32;;;;;;;14.95;13.55;;;16.70;99.90;;;;;;5064004;28;20183;-75
2022/10/28 09:02:27;;;;;;;16.63;14.48;;;16.70;99.90;;;;;;5071334;28;20229;-75
2022/10/28 09:05:18;;;;;;;14.70;12.88;;;16.60;99.90;;;;;;5058885;28;20180;-75
2022/10/28 09:07:44;;;;;;;14.35;12.65;;;16.60;99.90;;;;;;5059187;28;20179;-77
2022/10/28 09:10:12;;;;;;;13.98;12.57;;;16.50;99.90;;;;;;5057943;28;20186;-76
2022/10/28 09:12:58;;;;;;;12.40;10.85;;;16.40;99.90;;;;;;5061840;28;20192;-76
2022/10/28 09:15:47;;;;;;;12.93;11.32;;;16.30;99.90;;;;;;5066101;28;20224;-75
2022/10/28 09:18:43;;;;;;;13.88;12.35;;;16.20;99.90;;;;;;5057805;28;20184;-76
2022/10/28 09:21:39;;;;;;;12.45;11.05;;;16.30;99.90;;;;;;5065220;28;20233;-76
2022/10/28 09:24:35;;;;;;;13.25;11.57;;;16.40;99.90;;;;;;5075599;28;20513;-77
2022/10/28 09:27:14;;;;;;;13.07;11.60;;;16.60;99.90;;;;;;5069370;28;20207;-78
2022/10/28 09:30:09;;;;;;;14.57;11.85;;;16.70;99.90;;;;;;5065448;28;20191;-79
2022/10/28 09:32:49;;;;;;;12.77;11.40;;;16.90;99.90;;;;;;5064281;28;20188;-75
2022/10/28 09:35:20;;;;;;;13.23;11.07;;;17.10;99.90;;;;;;5062678;28;20203;-77
2022/10/28 09:38:03;;;;;;;15.55;11.55;;;17.10;99.90;;;;;;5066256;28;20266;-77
2022/10/28 09:40:33;;;;;;;14.32;11.85;;;17.30;99.90;;;;;;5073015;28;20233;-76
2022/10/28 09:43:19;;;;;;;12.00;10.57;;;17.40;99.90;;;;;;5067550;28;20230;-77
2022/10/28 09:45:47;;;;;;;12.60;11.35;;;17.40;99.90;;;;;;5069098;28;20225;-79
2022/10/28 09:48:26;;;;;;;15.15;11.93;;;17.50;99.90;;;;;;5068484;28;20191;-77
2022/10/28 09:50:55;;;;;;;12.93;11.38;;;17.60;99.90;;;;;;5065586;28;20556;-78
2022/10/28 09:53:34;;;;;;;13.18;10.25;;;17.80;99.90;;;;;;5056575;28;20237;-78
2022/10/28 09:56:01;;;;;;;11.10;10.00;;;18.10;99.90;;;;;;5054769;28;20724;-77
2022/10/28 09:58:26;;;;;;;12.15;10.70;;;18.30;99.90;;;;;;5057768;28;20199;-79
2022/10/28 10:00:52;;;;;;;14.95;10.32;;;18.70;99.90;;;;;;5058472;28;20190;-79
2022/10/28 10:03:18;;;;;;;12.07;9.75;;;19.20;99.90;;;;;;5059425;28;20247;-77
2022/10/28 10:05:47;;;;;;;9.95;8.38;;;20.90;99.90;;;;;;5057336;28;20211;-78
2022/10/28 10:08:19;;;;;;;10.82;7.90;;;23.60;99.90;;;;;;5052703;28;20190;-78
2022/10/28 10:10:51;;;;;;;11.63;8.55;;;25.60;99.90;;;;;;5053926;28;20179;-79
2022/10/28 10:13:31;;;;;;;8.65;7.80;;;26.30;99.90;;;;;;5054442;28;20191;-78
2022/10/28 10:16:08;;;;;;;10.68;8.75;;;26.50;99.90;;;;;;5057280;28;20218;-78
2022/10/28 10:18:35;;;;;;;9.18;8.27;;;27.20;99.90;;;;;;5058418;28;20168;-74
2022/10/28 10:21:01;;;;;;;8.80;7.88;;;27.10;96.80;;;;;;5054734;28;20172;-75
2022/10/28 10:23:27;;;;;;;10.50;7.38;;;26.30;97.40;;;;;;5056816;28;20168;-75
2022/10/28 10:26:14;;;;;;;8.70;7.55;;;26.10;98.00;;;;;;5059653;28;20678;-75
2022/10/28 10:28:45;;;;;;;6.80;6.20;;;25.50;98.20;;;;;;5054341;28;20183;-75
2022/10/28 10:31:24;;;;;;;9.45;6.63;;;24.80;99.30;;;;;;5057223;28;20233;-75
2022/10/28 10:33:52;;;;;;;7.63;6.25;;;24.60;99.90;;;;;;5055336;28;20193;-75
2022/10/28 10:36:22;;;;;;;8.05;6.55;;;25.80;98.00;;;;;;5055001;28;20207;-75
2022/10/28 10:38:51;;;;;;;11.63;6.55;;;26.70;95.70;;;;;;5059463;28;20172;-75
2022/10/28 10:41:36;;;;;;;7.15;6.40;;;28.30;93.00;;;;;;5063276;28;20172;-74
2022/10/28 10:44:21;;;;;;;6.88;6.15;;;30.40;85.90;;;;;;5069757;28;20186;-74
2022/10/28 10:47:07;;;;;;;8.30;6.20;;;32.10;76.40;;;;;;5067606;28;20642;-78
2022/10/28 10:49:34;;;;;;;8.40;6.10;;;33.00;70.60;;;;;;5055340;28;20175;-79
2022/10/28 10:52:08;;;;;;;7.25;4.88;;;33.70;68.30;;;;;;5054700;28;20178;-80
2022/10/28 10:54:36;;;;;;;5.57;5.07;;;34.00;64.90;;;;;;5057526;28;20633;-80
2022/10/28 10:57:09;;;;;;;7.03;5.75;;;34.30;62.70;;;;;;5055945;28;20290;-80
2022/10/28 10:59:39;;;;;;;6.00;5.40;;;34.40;59.70;;;;;;5059638;28;20177;-80
2022/10/28 11:02:29;;;;;;;7.57;5.65;;;34.20;60.30;;;;;;5054192;28;20179;-80
2022/10/28 11:04:58;;;;;;;5.47;5.05;;;33.50;60.40;;;;;;5057902;28;20654;-82
2022/10/28 11:07:24;;;;;;;5.50;5.00;;;33.40;61.00;;;;;;5058654;28;20198;-79
2022/10/28 11:09:50;;;;;;;5.40;4.93;;;33.90;60.10;;;;;;5057435;28;20174;-80
2022/10/28 11:12:27;;;;;;;4.97;4.47;;;34.20;59.00;;;;;;5061473;28;20171;-81
2022/10/28 11:14:56;;;;;;;5.53;4.82;;;34.40;58.30;;;;;;5057024;28;20277;-75
2022/10/28 11:17:30;;;;;;;6.50;5.47;;;35.10;57.10;;;;;;5057110;28;20199;-80
2022/10/28 11:20:17;;;;;;;8.82;5.25;;;35.40;55.90;;;;;;5060657;28;20171;-77
2022/10/28 11:23:02;;;;;;;5.32;4.65;;;36.40;54.10;;;;;;5054424;28;20177;-72
2022/10/28 11:25:39;;;;;;;6.68;5.10;;;37.30;52.60;;;;;;5057050;28;20202;-72
2022/10/28 11:28:32;;;;;;;4.88;4.47;;;37.50;51.60;;;;;;5058043;28;20178;-73
2022/10/28 11:31:12;;;;;;;5.32;4.78;;;37.40;51.70;;;;;;5057045;28;20183;-72
2022/10/28 11:33:40;;;;;;;4.28;3.80;;;38.10;50.60;;;;;;5053460;28;20178;-73
2022/10/28 11:36:11;;;;;;;4.07;3.70;;;38.50;49.80;;;;;;5056333;28;20290;-72
2022/10/28 11:38:59;;;;;;;5.70;4.22;;;38.80;49.70;;;;;;5053686;28;20284;-73
2022/10/28 11:41:54;;;;;;;9.65;4.55;;;38.60;47.90;;;;;;5055287;28;20183;-72
2022/10/28 11:44:32;;;;;;;4.28;3.75;;;38.20;49.00;;;;;;5054139;28;20187;-72
2022/10/28 11:47:20;;;;;;;4.05;3.70;;;38.50;48.60;;;;;;5058150;28;20684;-72
2022/10/28 11:50:10;;;;;;;6.43;4.25;;;38.30;48.90;;;;;;5061769;28;20175;-73
2022/10/28 11:53:11;;;;;;;4.28;3.88;;;38.40;47.90;;;;;;5067993;28;20183;-72
2022/10/28 11:56:07;;;;;;;5.30;4.18;;;38.80;47.50;;;;;;5062306;28;20268;-72
2022/10/28 11:58:40;;;;;;;7.15;4.47;;;38.80;47.00;;;;;;5067285;28;20206;-74
2022/10/28 12:01:38;;;;;;;3.95;3.60;;;38.90;47.20;;;;;;5065113;28;20183;-74
2022/10/28 12:04:13;;;;;;;4.47;3.33;;;39.30;46.30;;;;;;5057084;28;20206;-72
2022/10/28 12:07:11;;;;;;;3.55;3.35;;;39.60;46.20;;;;;;5059079;28;20243;-73
2022/10/28 12:09:48;;;;;;;4.07;3.50;;;40.30;45.80;;;;;;5063247;28;20178;-72
2022/10/28 12:12:34;;;;;;;3.45;3.15;;;40.80;44.30;;;;;;5060155;28;20174;-73
2022/10/28 12:15:25;;;;;;;5.03;3.22;;;40.90;43.70;;;;;;5061524;28;20175;-73
2022/10/28 12:18:08;;;;;;;3.45;3.15;;;40.40;44.20;;;;;;5060804;28;20758;-73
2022/10/28 12:20:43;;;;;;;3.20;2.95;;;39.70;44.70;;;;;;5060772;28;20539;-73
2022/10/28 12:23:14;;;;;;;3.67;2.95;;;37.90;46.80;;;;;;5062752;28;20562;-72
2022/10/28 12:25:42;;;;;;;4.45;3.88;;;35.90;49.10;;;;;;5069242;28;20201;-72
2022/10/28 12:28:34;;;;;;;5.05;3.35;;;34.20;51.20;;;;;;5076609;28;20170;-72
2022/10/28 12:31:01;;;;;;;8.35;3.95;;;33.80;52.80;;;;;;5063674;28;20602;-72
2022/10/28 12:33:41;;;;;;;4.15;2.97;;;34.40;52.90;;;;;;5058976;28;20179;-72
2022/10/28 12:36:06;;;;;;;3.22;2.90;;;35.40;51.20;;;;;;5055534;28;20199;-72
2022/10/28 12:38:44;;;;;;;4.32;2.65;;;36.00;50.20;;;;;;5053586;28;20194;-72
2022/10/28 12:41:17;;;;;;;5.00;2.60;;;36.40;48.80;;;;;;5056541;28;20179;-72
2022/10/28 12:44:11;;;;;;;3.20;3.00;;;36.50;48.20;;;;;;5059222;28;20174;-72
2022/10/28 12:46:37;;;;;;;2.90;2.70;;;36.20;48.80;;;;;;5054320;28;20215;-72
2022/10/28 12:49:27;;;;;;;3.45;3.15;;;35.90;49.10;;;;;;5053262;28;20185;-72
2022/10/28 12:51:53;;;;;;;3.42;2.83;;;35.70;49.60;;;;;;5049819;28;20183;-71
2022/10/28 12:54:29;;;;;;;6.53;3.28;;;35.90;49.20;;;;;;5050531;28;20194;-72
2022/10/28 12:57:23;;;;;;;3.42;3.10;;;35.40;50.00;;;;;;5052125;28;20689;-72